sensor_id;sensor_type;location;lat;lon;timestamp;P1;durP1;ratioP1;P2;durP2;ratioP2
45842;SDS011;31563;51.744;8.252;2023-07-02T00:00:09;0.77;;;0.50;;
45842;SDS011;31563;51.744;8.252;2023-07-02T00:02:38;0.77;;;0.68;;
45842;SDS011;31563;51.744;8.252;2023-07-02T00:05:06;0.95;;;0.60;;
45842;SDS011;31563;51.744;8.252;2023-07-02T00:07:35;1.58;;;0.70;;
45842;SDS011;31563;51.744;8.252;2023-07-02T00:10:04;1.90;;;0.80;;
45842;SDS011;31563;51.744;8.252;2023-07-02T00:12:32;0.52;;;0.50;;
45842;SDS011;31563;51.744;8.252;2023-07-02T00:15:01;0.60;;;0.60;;
45842;SDS011;31563;51.744;8.252;2023-07-02T00:17:31;0.90;;;0.45;;
45842;SDS011;31563;51.744;8.252;2023-07-02T00:19:59;1.23;;;0.60;;
45842;SDS011;31563;51.744;8.252;2023-07-02T00:22:32;0.80;;;0.50;;
45842;SDS011;31563;51.744;8.252;2023-07-02T00:25:03;0.70;;;0.60;;
45842;SDS011;31563;51.744;8.252;2023-07-02T00:27:31;1.05;;;0.60;;
45842;SDS011;31563;51.744;8.252;2023-07-02T00:29:59;0.90;;;0.65;;
45842;SDS011;31563;51.744;8.252;2023-07-02T00:32:27;0.90;;;0.50;;
45842;SDS011;31563;51.744;8.252;2023-07-02T00:34:57;0.47;;;0.47;;
45842;SDS011;31563;51.744;8.252;2023-07-02T00:37:26;0.90;;;0.43;;
45842;SDS011;31563;51.744;8.252;2023-07-02T00:39:54;0.68;;;0.50;;
45842;SDS011;31563;51.744;8.252;2023-07-02T00:42:23;0.57;;;0.57;;
45842;SDS011;31563;51.744;8.252;2023-07-02T00:44:55;1.23;;;0.50;;
45842;SDS011;31563;51.744;8.252;2023-07-02T00:47:29;1.08;;;0.50;;
45842;SDS011;31563;51.744;8.252;2023-07-02T00:49:59;0.60;;;0.43;;
45842;SDS011;31563;51.744;8.252;2023-07-02T00:54:55;0.80;;;0.60;;
45842;SDS011;31563;51.744;8.252;2023-07-02T00:57:23;0.85;;;0.50;;
45842;SDS011;31563;51.744;8.252;2023-07-02T00:59:56;1.88;;;0.63;;
45842;SDS011;31563;51.744;8.252;2023-07-02T01:02:26;0.80;;;0.50;;
45842;SDS011;31563;51.744;8.252;2023-07-02T01:04:56;0.73;;;0.60;;
45842;SDS011;31563;51.744;8.252;2023-07-02T01:07:27;0.57;;;0.40;;
45842;SDS011;31563;51.744;8.252;2023-07-02T01:09:56;1.80;;;0.52;;
45842;SDS011;31563;51.744;8.252;2023-07-02T01:12:24;0.50;;;0.50;;
45842;SDS011;31563;51.744;8.252;2023-07-02T01:14:53;0.63;;;0.60;;
45842;SDS011;31563;51.744;8.252;2023-07-02T01:17:26;0.80;;;0.57;;
45842;SDS011;31563;51.744;8.252;2023-07-02T01:20:06;0.68;;;0.52;;
45842;SDS011;31563;51.744;8.252;2023-07-02T01:22:36;1.30;;;0.82;;
45842;SDS011;31563;51.744;8.252;2023-07-02T01:25:05;0.57;;;0.52;;
45842;SDS011;31563;51.744;8.252;2023-07-02T01:27:35;0.50;;;0.50;;
45842;SDS011;31563;51.744;8.252;2023-07-02T01:30:05;1.00;;;0.70;;
45842;SDS011;31563;51.744;8.252;2023-07-02T01:32:34;0.85;;;0.57;;
45842;SDS011;31563;51.744;8.252;2023-07-02T01:35:02;1.30;;;0.40;;
45842;SDS011;31563;51.744;8.252;2023-07-02T01:37:32;0.87;;;0.50;;
45842;SDS011;31563;51.744;8.252;2023-07-02T01:40:04;0.65;;;0.50;;
45842;SDS011;31563;51.744;8.252;2023-07-02T01:42:34;0.73;;;0.57;;
45842;SDS011;31563;51.744;8.252;2023-07-02T01:45:02;0.93;;;0.50;;
45842;SDS011;31563;51.744;8.252;2023-07-02T01:47:31;0.85;;;0.60;;
45842;SDS011;31563;51.744;8.252;2023-07-02T01:49:59;0.95;;;0.70;;
45842;SDS011;31563;51.744;8.252;2023-07-02T01:52:27;0.60;;;0.50;;
45842;SDS011;31563;51.744;8.252;2023-07-02T01:55:01;1.23;;;0.60;;
45842;SDS011;31563;51.744;8.252;2023-07-02T01:57:29;0.60;;;0.50;;
45842;SDS011;31563;51.744;8.252;2023-07-02T01:59:57;1.10;;;0.40;;
45842;SDS011;31563;51.744;8.252;2023-07-02T02:02:26;0.70;;;0.50;;
45842;SDS011;31563;51.744;8.252;2023-07-02T02:04:54;0.95;;;0.70;;
45842;SDS011;31563;51.744;8.252;2023-07-02T02:07:23;0.50;;;0.47;;
45842;SDS011;31563;51.744;8.252;2023-07-02T02:09:52;0.50;;;0.43;;
45842;SDS011;31563;51.744;8.252;2023-07-02T02:12:21;0.73;;;0.45;;
45842;SDS011;31563;51.744;8.252;2023-07-02T02:17:18;1.25;;;0.60;;
45842;SDS011;31563;51.744;8.252;2023-07-02T02:19:46;0.77;;;0.50;;
45842;SDS011;31563;51.744;8.252;2023-07-02T02:22:14;2.95;;;0.70;;
45842;SDS011;31563;51.744;8.252;2023-07-02T02:24:42;0.82;;;0.50;;
45842;SDS011;31563;51.744;8.252;2023-07-02T02:27:10;0.65;;;0.60;;
45842;SDS011;31563;51.744;8.252;2023-07-02T02:29:40;0.52;;;0.52;;
45842;SDS011;31563;51.744;8.252;2023-07-02T02:32:08;0.80;;;0.68;;
45842;SDS011;31563;51.744;8.252;2023-07-02T02:34:36;0.50;;;0.50;;
45842;SDS011;31563;51.744;8.252;2023-07-02T02:37:04;0.95;;;0.50;;
45842;SDS011;31563;51.744;8.252;2023-07-02T02:39:33;0.75;;;0.50;;
45842;SDS011;31563;51.744;8.252;2023-07-02T02:42:01;1.52;;;0.70;;
45842;SDS011;31563;51.744;8.252;2023-07-02T02:44:29;0.80;;;0.50;;
45842;SDS011;31563;51.744;8.252;2023-07-02T02:47:00;0.90;;;0.50;;
45842;SDS011;31563;51.744;8.252;2023-07-02T02:49:29;0.55;;;0.43;;
45842;SDS011;31563;51.744;8.252;2023-07-02T02:51:57;0.82;;;0.70;;
45842;SDS011;31563;51.744;8.252;2023-07-02T02:54:25;1.17;;;0.63;;
45842;SDS011;31563;51.744;8.252;2023-07-02T02:56:53;1.20;;;0.57;;
45842;SDS011;31563;51.744;8.252;2023-07-02T02:59:21;0.80;;;0.63;;
45842;SDS011;31563;51.744;8.252;2023-07-02T03:01:49;1.52;;;0.88;;
45842;SDS011;31563;51.744;8.252;2023-07-02T03:04:19;2.22;;;0.50;;
45842;SDS011;31563;51.744;8.252;2023-07-02T03:06:50;2.00;;;0.70;;
45842;SDS011;31563;51.744;8.252;2023-07-02T03:09:19;1.20;;;0.80;;
45842;SDS011;31563;51.744;8.252;2023-07-02T03:11:48;0.90;;;0.63;;
45842;SDS011;31563;51.744;8.252;2023-07-02T03:14:16;0.85;;;0.70;;
45842;SDS011;31563;51.744;8.252;2023-07-02T03:16:44;0.70;;;0.70;;
45842;SDS011;31563;51.744;8.252;2023-07-02T03:19:13;1.80;;;1.10;;
45842;SDS011;31563;51.744;8.252;2023-07-02T03:21:43;1.10;;;0.70;;
45842;SDS011;31563;51.744;8.252;2023-07-02T03:26:40;2.35;;;0.90;;
45842;SDS011;31563;51.744;8.252;2023-07-02T03:29:08;1.90;;;1.27;;
45842;SDS011;31563;51.744;8.252;2023-07-02T03:31:37;2.85;;;0.95;;
45842;SDS011;31563;51.744;8.252;2023-07-02T03:34:06;2.30;;;1.23;;
45842;SDS011;31563;51.744;8.252;2023-07-02T03:36:35;2.00;;;0.98;;
45842;SDS011;31563;51.744;8.252;2023-07-02T03:39:05;2.10;;;1.00;;
45842;SDS011;31563;51.744;8.252;2023-07-02T03:41:35;1.58;;;1.02;;
45842;SDS011;31563;51.744;8.252;2023-07-02T03:44:04;1.85;;;1.02;;
45842;SDS011;31563;51.744;8.252;2023-07-02T03:46:32;1.55;;;1.08;;
45842;SDS011;31563;51.744;8.252;2023-07-02T03:49:00;2.45;;;1.10;;
45842;SDS011;31563;51.744;8.252;2023-07-02T03:51:29;1.83;;;0.93;;
45842;SDS011;31563;51.744;8.252;2023-07-02T03:53:57;1.88;;;1.38;;
45842;SDS011;31563;51.744;8.252;2023-07-02T03:56:27;1.00;;;0.90;;
45842;SDS011;31563;51.744;8.252;2023-07-02T03:58:55;1.73;;;1.20;;
45842;SDS011;31563;51.744;8.252;2023-07-02T04:01:23;1.50;;;1.30;;
45842;SDS011;31563;51.744;8.252;2023-07-02T04:03:52;2.33;;;1.30;;
45842;SDS011;31563;51.744;8.252;2023-07-02T04:06:22;2.17;;;1.30;;
45842;SDS011;31563;51.744;8.252;2023-07-02T04:08:50;1.83;;;1.58;;
45842;SDS011;31563;51.744;8.252;2023-07-02T04:11:18;2.22;;;1.50;;
45842;SDS011;31563;51.744;8.252;2023-07-02T04:13:48;2.72;;;1.40;;
45842;SDS011;31563;51.744;8.252;2023-07-02T04:16:16;1.75;;;1.33;;
45842;SDS011;31563;51.744;8.252;2023-07-02T04:18:44;3.13;;;1.33;;
45842;SDS011;31563;51.744;8.252;2023-07-02T04:21:12;6.13;;;2.90;;
45842;SDS011;31563;51.744;8.252;2023-07-02T04:23:40;6.97;;;4.28;;
45842;SDS011;31563;51.744;8.252;2023-07-02T04:26:09;7.57;;;4.53;;
45842;SDS011;31563;51.744;8.252;2023-07-02T04:28:59;3.83;;;3.20;;
45842;SDS011;31563;51.744;8.252;2023-07-02T04:31:27;5.90;;;3.30;;
45842;SDS011;31563;51.744;8.252;2023-07-02T04:33:56;4.80;;;3.40;;
45842;SDS011;31563;51.744;8.252;2023-07-02T04:36:26;6.22;;;4.50;;
45842;SDS011;31563;51.744;8.252;2023-07-02T04:38:54;8.23;;;5.00;;
45842;SDS011;31563;51.744;8.252;2023-07-02T04:41:23;7.85;;;5.18;;
45842;SDS011;31563;51.744;8.252;2023-07-02T04:43:51;8.70;;;6.07;;
45842;SDS011;31563;51.744;8.252;2023-07-02T04:46:20;10.23;;;5.72;;
45842;SDS011;31563;51.744;8.252;2023-07-02T04:48:49;8.13;;;6.07;;
45842;SDS011;31563;51.744;8.252;2023-07-02T04:51:17;10.15;;;6.18;;
45842;SDS011;31563;51.744;8.252;2023-07-02T04:56:15;10.35;;;6.07;;
45842;SDS011;31563;51.744;8.252;2023-07-02T04:58:43;10.73;;;6.60;;
45842;SDS011;31563;51.744;8.252;2023-07-02T05:01:11;10.32;;;6.88;;
45842;SDS011;31563;51.744;8.252;2023-07-02T05:03:41;8.70;;;6.20;;
45842;SDS011;31563;51.744;8.252;2023-07-02T05:06:09;11.63;;;6.25;;
45842;SDS011;31563;51.744;8.252;2023-07-02T05:08:37;10.45;;;6.60;;
45842;SDS011;31563;51.744;8.252;2023-07-02T05:11:08;11.10;;;6.88;;
45842;SDS011;31563;51.744;8.252;2023-07-02T05:13:36;11.27;;;6.70;;
45842;SDS011;31563;51.744;8.252;2023-07-02T05:16:04;9.80;;;6.70;;
45842;SDS011;31563;51.744;8.252;2023-07-02T05:18:33;13.18;;;7.22;;
45842;SDS011;31563;51.744;8.252;2023-07-02T05:21:02;11.43;;;7.03;;
45842;SDS011;31563;51.744;8.252;2023-07-02T05:23:30;12.23;;;7.85;;
45842;SDS011;31563;51.744;8.252;2023-07-02T05:25:59;10.73;;;7.50;;
45842;SDS011;31563;51.744;8.252;2023-07-02T05:28:27;10.63;;;7.10;;
45842;SDS011;31563;51.744;8.252;2023-07-02T05:30:56;9.23;;;7.18;;
45842;SDS011;31563;51.744;8.252;2023-07-02T05:33:24;10.25;;;7.78;;
45842;SDS011;31563;51.744;8.252;2023-07-02T05:35:52;10.93;;;7.72;;
45842;SDS011;31563;51.744;8.252;2023-07-02T05:38:22;11.07;;;7.45;;
45842;SDS011;31563;51.744;8.252;2023-07-02T05:40:50;10.65;;;7.60;;
45842;SDS011;31563;51.744;8.252;2023-07-02T05:43:18;11.20;;;7.78;;
45842;SDS011;31563;51.744;8.252;2023-07-02T05:45:46;11.98;;;7.53;;
45842;SDS011;31563;51.744;8.252;2023-07-02T05:48:14;11.25;;;7.72;;
45842;SDS011;31563;51.744;8.252;2023-07-02T05:50:43;11.93;;;7.28;;
45842;SDS011;31563;51.744;8.252;2023-07-02T05:53:11;11.25;;;6.00;;
45842;SDS011;31563;51.744;8.252;2023-07-02T05:55:41;11.60;;;6.57;;
45842;SDS011;31563;51.744;8.252;2023-07-02T05:58:10;9.98;;;6.18;;
45842;SDS011;31563;51.744;8.252;2023-07-02T06:00:38;10.52;;;6.72;;
45842;SDS011;31563;51.744;8.252;2023-07-02T06:03:08;11.50;;;6.70;;
45842;SDS011;31563;51.744;8.252;2023-07-02T06:05:36;12.05;;;7.15;;
45842;SDS011;31563;51.744;8.252;2023-07-02T06:08:05;12.68;;;6.72;;
45842;SDS011;31563;51.744;8.252;2023-07-02T06:10:33;9.02;;;6.20;;
45842;SDS011;31563;51.744;8.252;2023-07-02T06:13:02;10.35;;;6.15;;
45842;SDS011;31563;51.744;8.252;2023-07-02T06:15:30;13.30;;;6.72;;
45842;SDS011;31563;51.744;8.252;2023-07-02T06:17:58;13.43;;;6.75;;
45842;SDS011;31563;51.744;8.252;2023-07-02T06:20:27;11.82;;;6.45;;
45842;SDS011;31563;51.744;8.252;2023-07-02T06:22:55;14.18;;;7.00;;
45842;SDS011;31563;51.744;8.252;2023-07-02T06:25:23;11.35;;;6.38;;
45842;SDS011;31563;51.744;8.252;2023-07-02T06:27:51;11.45;;;6.60;;
45842;SDS011;31563;51.744;8.252;2023-07-02T06:30:23;12.55;;;7.00;;
45842;SDS011;31563;51.744;8.252;2023-07-02T06:32:51;12.52;;;6.97;;
45842;SDS011;31563;51.744;8.252;2023-07-02T06:35:19;12.80;;;7.47;;
45842;SDS011;31563;51.744;8.252;2023-07-02T06:37:48;12.05;;;7.10;;
45842;SDS011;31563;51.744;8.252;2023-07-02T06:40:16;13.20;;;6.95;;
45842;SDS011;31563;51.744;8.252;2023-07-02T06:42:44;11.75;;;6.85;;
45842;SDS011;31563;51.744;8.252;2023-07-02T06:45:12;12.05;;;7.22;;
45842;SDS011;31563;51.744;8.252;2023-07-02T06:47:42;13.52;;;7.22;;
45842;SDS011;31563;51.744;8.252;2023-07-02T06:52:38;12.95;;;6.90;;
45842;SDS011;31563;51.744;8.252;2023-07-02T06:55:07;9.57;;;6.30;;
45842;SDS011;31563;51.744;8.252;2023-07-02T06:57:41;13.60;;;7.20;;
45842;SDS011;31563;51.744;8.252;2023-07-02T07:00:10;13.73;;;7.18;;
45842;SDS011;31563;51.744;8.252;2023-07-02T07:02:39;13.25;;;7.03;;
45842;SDS011;31563;51.744;8.252;2023-07-02T07:05:09;14.82;;;7.35;;
45842;SDS011;31563;51.744;8.252;2023-07-02T07:07:37;14.50;;;7.03;;
45842;SDS011;31563;51.744;8.252;2023-07-02T07:10:05;11.88;;;6.80;;
45842;SDS011;31563;51.744;8.252;2023-07-02T07:12:34;15.07;;;7.43;;
45842;SDS011;31563;51.744;8.252;2023-07-02T07:15:03;15.02;;;7.55;;
45842;SDS011;31563;51.744;8.252;2023-07-02T07:17:32;12.67;;;7.53;;
45842;SDS011;31563;51.744;8.252;2023-07-02T07:20:00;11.90;;;7.60;;
45842;SDS011;31563;51.744;8.252;2023-07-02T07:22:33;14.77;;;7.75;;
45842;SDS011;31563;51.744;8.252;2023-07-02T07:25:01;13.55;;;7.90;;
45842;SDS011;31563;51.744;8.252;2023-07-02T07:27:30;10.67;;;8.20;;
45842;SDS011;31563;51.744;8.252;2023-07-02T07:29:58;12.60;;;8.32;;
45842;SDS011;31563;51.744;8.252;2023-07-02T07:32:26;14.63;;;9.60;;
45842;SDS011;31563;51.744;8.252;2023-07-02T07:34:54;14.57;;;11.32;;
45842;SDS011;31563;51.744;8.252;2023-07-02T07:37:22;14.90;;;11.82;;
45842;SDS011;31563;51.744;8.252;2023-07-02T07:39:53;18.55;;;13.82;;
45842;SDS011;31563;51.744;8.252;2023-07-02T07:42:21;18.23;;;13.77;;
45842;SDS011;31563;51.744;8.252;2023-07-02T07:44:49;17.13;;;12.68;;
45842;SDS011;31563;51.744;8.252;2023-07-02T07:47:17;18.80;;;11.57;;
45842;SDS011;31563;51.744;8.252;2023-07-02T07:49:46;13.02;;;9.57;;
45842;SDS011;31563;51.744;8.252;2023-07-02T07:52:14;17.27;;;9.77;;
45842;SDS011;31563;51.744;8.252;2023-07-02T07:54:42;12.95;;;8.82;;
45842;SDS011;31563;51.744;8.252;2023-07-02T07:57:12;14.13;;;9.18;;
45842;SDS011;31563;51.744;8.252;2023-07-02T08:02:08;15.65;;;8.52;;
45842;SDS011;31563;51.744;8.252;2023-07-02T08:04:37;12.57;;;8.52;;
45842;SDS011;31563;51.744;8.252;2023-07-02T08:07:05;16.50;;;9.45;;
45842;SDS011;31563;51.744;8.252;2023-07-02T08:09:35;13.63;;;8.90;;
45842;SDS011;31563;51.744;8.252;2023-07-02T08:12:03;14.30;;;9.20;;
45842;SDS011;31563;51.744;8.252;2023-07-02T08:14:33;14.13;;;9.10;;
45842;SDS011;31563;51.744;8.252;2023-07-02T08:17:02;13.23;;;9.13;;
45842;SDS011;31563;51.744;8.252;2023-07-02T08:19:31;13.70;;;8.60;;
45842;SDS011;31563;51.744;8.252;2023-07-02T08:21:59;13.60;;;8.73;;
45842;SDS011;31563;51.744;8.252;2023-07-02T08:24:27;12.68;;;8.20;;
45842;SDS011;31563;51.744;8.252;2023-07-02T08:26:57;13.48;;;8.05;;
45842;SDS011;31563;51.744;8.252;2023-07-02T08:29:26;12.40;;;8.47;;
45842;SDS011;31563;51.744;8.252;2023-07-02T08:31:55;13.27;;;8.55;;
